sensor_id;sensor_type;location;lat;lon;timestamp;pressure;altitude;pressure_sealevel;temperature;humidity
27358;BME280;14831;50.474;7.616;2023-01-19T00:01:58;96740;;;-2.3;89.9
27358;BME280;14831;50.474;7.616;2023-01-19T00:06:58;96750;;;-2.2;89.9
27358;BME280;14831;50.474;7.616;2023-01-19T00:11:58;96750;;;-2.2;90.0
27358;BME280;14831;50.474;7.616;2023-01-19T00:16:58;96760;;;-2.2;90.1
27358;BME280;14831;50.474;7.616;2023-01-19T00:21:58;96760;;;-2.2;90.5
27358;BME280;14831;50.474;7.616;2023-01-19T00:26:58;96760;;;-2.1;90.5
27358;BME280;14831;50.474;7.616;2023-01-19T00:31:58;96750;;;-2.0;90.4
27358;BME280;14831;50.474;7.616;2023-01-19T00:36:58;96750;;;-1.9;90.4
27358;BME280;14831;50.474;7.616;2023-01-19T00:41:58;96760;;;-1.8;90.1
27358;BME280;14831;50.474;7.616;2023-01-19T00:46:58;96770;;;-1.7;90.2
27358;BME280;14831;50.474;7.616;2023-01-19T00:51:58;96780;;;-1.7;90.1
27358;BME280;14831;50.474;7.616;2023-01-19T00:56:58;96780;;;-1.7;90.3
27358;BME280;14831;50.474;7.616;2023-01-19T01:01:58;96790;;;-1.6;90.3
27358;BME280;14831;50.474;7.616;2023-01-19T01:06:58;96780;;;-1.6;90.5
27358;BME280;14831;50.474;7.616;2023-01-19T01:11:58;96790;;;-1.6;90.6
27358;BME280;14831;50.474;7.616;2023-01-19T01:16:58;96790;;;-1.6;90.8
27358;BME280;14831;50.474;7.616;2023-01-19T01:21:58;96790;;;-1.6;90.9
27358;BME280;14831;50.474;7.616;2023-01-19T01:26:58;96800;;;-1.5;91.0
27358;BME280;14831;50.474;7.616;2023-01-19T01:31:58;96800;;;-1.5;91.0
27358;BME280;14831;50.474;7.616;2023-01-19T01:36:58;96800;;;-1.5;91.1
27358;BME280;14831;50.474;7.616;2023-01-19T01:41:58;96800;;;-1.5;91.3
27358;BME280;14831;50.474;7.616;2023-01-19T01:46:58;96810;;;-1.5;91.4
27358;BME280;14831;50.474;7.616;2023-01-19T01:51:58;96790;;;-1.5;91.4
27358;BME280;14831;50.474;7.616;2023-01-19T01:56:59;96780;;;-1.6;91.8
27358;BME280;14831;50.474;7.616;2023-01-19T02:02:00;96780;;;-1.7;92.4
27358;BME280;14831;50.474;7.616;2023-01-19T02:06:58;96780;;;-1.7;92.7
27358;BME280;14831;50.474;7.616;2023-01-19T02:11:58;96790;;;-1.7;93.1
27358;BME280;14831;50.474;7.616;2023-01-19T02:16:58;96780;;;-1.8;93.3
27358;BME280;14831;50.474;7.616;2023-01-19T02:21:59;96780;;;-1.8;93.4
27358;BME280;14831;50.474;7.616;2023-01-19T02:26:58;96790;;;-1.8;93.6
27358;BME280;14831;50.474;7.616;2023-01-19T02:31:58;96790;;;-1.8;93.8
27358;BME280;14831;50.474;7.616;2023-01-19T02:36:59;96790;;;-1.8;94.0
27358;BME280;14831;50.474;7.616;2023-01-19T02:41:59;96800;;;-1.9;94.3
27358;BME280;14831;50.474;7.616;2023-01-19T02:46:58;96790;;;-1.9;94.7
27358;BME280;14831;50.474;7.616;2023-01-19T02:51:58;96810;;;-1.9;94.9
27358;BME280;14831;50.474;7.616;2023-01-19T02:57:02;96800;;;-1.9;94.8
27358;BME280;14831;50.474;7.616;2023-01-19T03:02:03;96810;;;-1.9;95.0
27358;BME280;14831;50.474;7.616;2023-01-19T03:07:01;96790;;;-1.8;94.9
27358;BME280;14831;50.474;7.616;2023-01-19T03:12:00;96790;;;-1.9;94.9
27358;BME280;14831;50.474;7.616;2023-01-19T03:16:59;96780;;;-1.8;94.7
27358;BME280;14831;50.474;7.616;2023-01-19T03:21:59;96780;;;-1.8;94.7
27358;BME280;14831;50.474;7.616;2023-01-19T03:26:59;96780;;;-1.8;94.7
27358;BME280;14831;50.474;7.616;2023-01-19T03:31:58;96780;;;-1.8;94.7
27358;BME280;14831;50.474;7.616;2023-01-19T03:36:59;96790;;;-1.8;94.7
27358;BME280;14831;50.474;7.616;2023-01-19T03:42:00;96800;;;-1.7;94.7
27358;BME280;14831;50.474;7.616;2023-01-19T03:46:58;96800;;;-1.7;94.7
27358;BME280;14831;50.474;7.616;2023-01-19T03:51:58;96800;;;-1.7;94.7
27358;BME280;14831;50.474;7.616;2023-01-19T03:56:58;96810;;;-1.7;94.9
27358;BME280;14831;50.474;7.616;2023-01-19T04:01:58;96810;;;-1.6;94.9
27358;BME280;14831;50.474;7.616;2023-01-19T04:06:58;96810;;;-1.6;94.9
27358;BME280;14831;50.474;7.616;2023-01-19T04:11:58;96800;;;-1.6;94.9
27358;BME280;14831;50.474;7.616;2023-01-19T04:16:58;96810;;;-1.6;94.9
27358;BME280;14831;50.474;7.616;2023-01-19T04:21:58;96800;;;-1.6;94.9
27358;BME280;14831;50.474;7.616;2023-01-19T04:26:58;96810;;;-1.5;94.6
27358;BME280;14831;50.474;7.616;2023-01-19T04:31:58;96820;;;-1.4;94.2
27358;BME280;14831;50.474;7.616;2023-01-19T04:36:58;96830;;;-1.3;93.9
27358;BME280;14831;50.474;7.616;2023-01-19T04:41:58;96810;;;-1.3;93.9
27358;BME280;14831;50.474;7.616;2023-01-19T04:46:58;96820;;;-1.3;94.1
27358;BME280;14831;50.474;7.616;2023-01-19T04:51:58;96810;;;-1.4;94.2
27358;BME280;14831;50.474;7.616;2023-01-19T04:56:58;96800;;;-1.4;94.5
27358;BME280;14831;50.474;7.616;2023-01-19T05:01:58;96800;;;-1.6;94.9
27358;BME280;14831;50.474;7.616;2023-01-19T05:06:58;96810;;;-1.6;95.1
27358;BME280;14831;50.474;7.616;2023-01-19T05:11:58;96810;;;-1.6;95.3
27358;BME280;14831;50.474;7.616;2023-01-19T05:16:58;96800;;;-1.6;95.4
27358;BME280;14831;50.474;7.616;2023-01-19T05:21:58;96810;;;-1.5;95.5
27358;BME280;14831;50.474;7.616;2023-01-19T05:26:58;96820;;;-1.5;95.4
27358;BME280;14831;50.474;7.616;2023-01-19T05:31:58;96830;;;-1.4;95.2
27358;BME280;14831;50.474;7.616;2023-01-19T05:36:58;96830;;;-1.3;95.0
27358;BME280;14831;50.474;7.616;2023-01-19T05:41:58;96820;;;-1.3;94.8
27358;BME280;14831;50.474;7.616;2023-01-19T05:46:58;96830;;;-1.2;94.6
27358;BME280;14831;50.474;7.616;2023-01-19T05:51:58;96830;;;-1.2;94.4
27358;BME280;14831;50.474;7.616;2023-01-19T05:56:58;96830;;;-1.1;94.2
27358;BME280;14831;50.474;7.616;2023-01-19T06:01:58;96820;;;-1.1;94.2
27358;BME280;14831;50.474;7.616;2023-01-19T06:06:58;96840;;;-1.1;94.0
27358;BME280;14831;50.474;7.616;2023-01-19T06:11:58;96830;;;-1.1;93.9
27358;BME280;14831;50.474;7.616;2023-01-19T06:16:58;96830;;;-1.0;93.6
27358;BME280;14831;50.474;7.616;2023-01-19T06:21:58;96830;;;-1.0;93.6
27358;BME280;14831;50.474;7.616;2023-01-19T06:26:58;96830;;;-1.0;93.5
27358;BME280;14831;50.474;7.616;2023-01-19T06:31:58;96830;;;-1.1;93.7
27358;BME280;14831;50.474;7.616;2023-01-19T06:36:58;96830;;;-1.0;93.8
27358;BME280;14831;50.474;7.616;2023-01-19T06:41:58;96830;;;-1.0;93.4
27358;BME280;14831;50.474;7.616;2023-01-19T06:46:58;96830;;;-1.0;93.4
27358;BME280;14831;50.474;7.616;2023-01-19T06:51:58;96830;;;-1.0;92.8
27358;BME280;14831;50.474;7.616;2023-01-19T06:56:58;96860;;;-0.9;92.3
27358;BME280;14831;50.474;7.616;2023-01-19T07:01:58;96860;;;-0.8;92.0
27358;BME280;14831;50.474;7.616;2023-01-19T07:06:58;96860;;;-0.8;92.2
27358;BME280;14831;50.474;7.616;2023-01-19T07:11:58;96860;;;-0.8;91.7
27358;BME280;14831;50.474;7.616;2023-01-19T07:16:58;96870;;;-0.8;91.8
27358;BME280;14831;50.474;7.616;2023-01-19T07:21:58;96870;;;-0.7;91.3
27358;BME280;14831;50.474;7.616;2023-01-19T07:26:58;96870;;;-0.7;91.2
27358;BME280;14831;50.474;7.616;2023-01-19T07:31:58;96880;;;-0.7;91.6
27358;BME280;14831;50.474;7.616;2023-01-19T07:36:58;96880;;;-0.7;91.8
27358;BME280;14831;50.474;7.616;2023-01-19T07:41:58;96880;;;-0.7;92.7
27358;BME280;14831;50.474;7.616;2023-01-19T07:46:58;96890;;;-0.7;94.0
27358;BME280;14831;50.474;7.616;2023-01-19T07:51:58;96900;;;-0.8;95.4
27358;BME280;14831;50.474;7.616;2023-01-19T07:56:58;96890;;;-0.9;96.1
27358;BME280;14831;50.474;7.616;2023-01-19T08:01:58;96910;;;-0.9;96.6
27358;BME280;14831;50.474;7.616;2023-01-19T08:06:58;96910;;;-0.9;97.0
27358;BME280;14831;50.474;7.616;2023-01-19T08:11:58;96910;;;-0.9;97.4
27358;BME280;14831;50.474;7.616;2023-01-19T08:16:58;96910;;;-0.9;97.5
27358;BME280;14831;50.474;7.616;2023-01-19T08:21:58;96920;;;-0.9;97.7
27358;BME280;14831;50.474;7.616;2023-01-19T08:26:58;96920;;;-0.9;97.8
27358;BME280;14831;50.474;7.616;2023-01-19T08:31:58;96920;;;-0.9;97.6
27358;BME280;14831;50.474;7.616;2023-01-19T08:36:58;96920;;;-0.8;97.4
27358;BME280;14831;50.474;7.616;2023-01-19T08:41:58;96930;;;-0.8;97.3
27358;BME280;14831;50.474;7.616;2023-01-19T08:46:58;96930;;;-0.7;97.1
27358;BME280;14831;50.474;7.616;2023-01-19T08:51:58;96940;;;-0.6;96.7
27358;BME280;14831;50.474;7.616;2023-01-19T08:56:58;96940;;;-0.5;96.2
27358;BME280;14831;50.474;7.616;2023-01-19T09:01:58;96940;;;-0.5;96.3
27358;BME280;14831;50.474;7.616;2023-01-19T09:06:58;96950;;;-0.5;95.9
27358;BME280;14831;50.474;7.616;2023-01-19T09:11:58;96950;;;-0.5;96.4
27358;BME280;14831;50.474;7.616;2023-01-19T09:16:58;96960;;;-0.6;96.8
27358;BME280;14831;50.474;7.616;2023-01-19T09:21:58;96970;;;-0.6;96.8
27358;BME280;14831;50.474;7.616;2023-01-19T09:26:58;96970;;;-0.6;97.1
27358;BME280;14831;50.474;7.616;2023-01-19T09:31:58;96960;;;-0.6;97.1
27358;BME280;14831;50.474;7.616;2023-01-19T09:36:58;96970;;;-0.6;97.0
27358;BME280;14831;50.474;7.616;2023-01-19T09:41:59;96990;;;-0.6;97.3
27358;BME280;14831;50.474;7.616;2023-01-19T09:46:58;97010;;;-0.6;97.3
27358;BME280;14831;50.474;7.616;2023-01-19T09:51:58;97000;;;-0.5;97.2
27358;BME280;14831;50.474;7.616;2023-01-19T09:56:58;97000;;;-0.5;97.1
27358;BME280;14831;50.474;7.616;2023-01-19T10:02:02;96990;;;-0.5;97.3
27358;BME280;14831;50.474;7.616;2023-01-19T10:07:02;97010;;;-0.5;97.6
27358;BME280;14831;50.474;7.616;2023-01-19T10:12:00;97000;;;-0.4;97.4
27358;BME280;14831;50.474;7.616;2023-01-19T10:16:59;97010;;;-0.3;96.8
27358;BME280;14831;50.474;7.616;2023-01-19T10:21:59;97000;;;-0.3;97.0
27358;BME280;14831;50.474;7.616;2023-01-19T10:26:58;97000;;;-0.2;96.7
27358;BME280;14831;50.474;7.616;2023-01-19T10:32:00;97010;;;-0.2;96.6
27358;BME280;14831;50.474;7.616;2023-01-19T10:37:01;97010;;;-0.1;96.3
27358;BME280;14831;50.474;7.616;2023-01-19T10:41:59;97010;;;-0.2;96.4
27358;BME280;14831;50.474;7.616;2023-01-19T10:46:58;97020;;;-0.3;96.7
27358;BME280;14831;50.474;7.616;2023-01-19T10:51:58;97010;;;-0.3;96.7
27358;BME280;14831;50.474;7.616;2023-01-19T10:57:00;97020;;;-0.3;96.7
27358;BME280;14831;50.474;7.616;2023-01-19T11:02:03;97010;;;-0.3;96.8
27358;BME280;14831;50.474;7.616;2023-01-19T11:07:11;97000;;;-0.3;96.8
27358;BME280;14831;50.474;7.616;2023-01-19T11:11:58;97010;;;-0.3;96.2
27358;BME280;14831;50.474;7.616;2023-01-19T11:16:58;97000;;;-0.3;95.8
27358;BME280;14831;50.474;7.616;2023-01-19T11:22:07;97010;;;-0.2;95.3
27358;BME280;14831;50.474;7.616;2023-01-19T11:26:58;97010;;;-0.2;94.5
27358;BME280;14831;50.474;7.616;2023-01-19T11:32:08;97020;;;-0.2;95.0
27358;BME280;14831;50.474;7.616;2023-01-19T11:36:59;97020;;;-0.2;95.0
27358;BME280;14831;50.474;7.616;2023-01-19T11:41:59;97020;;;-0.2;95.2
27358;BME280;14831;50.474;7.616;2023-01-19T11:46:59;97020;;;-0.1;95.0
27358;BME280;14831;50.474;7.616;2023-01-19T11:51:59;97020;;;-0.1;94.7
27358;BME280;14831;50.474;7.616;2023-01-19T11:56:58;97020;;;0.1;90.6
27358;BME280;14831;50.474;7.616;2023-01-19T12:01:59;97020;;;0.2;90.5
27358;BME280;14831;50.474;7.616;2023-01-19T12:06:59;97010;;;0.2;90.3
27358;BME280;14831;50.474;7.616;2023-01-19T12:12:00;97020;;;0.4;89.9
27358;BME280;14831;50.474;7.616;2023-01-19T12:16:59;97020;;;0.6;89.2
27358;BME280;14831;50.474;7.616;2023-01-19T12:21:58;97020;;;0.6;88.9
27358;BME280;14831;50.474;7.616;2023-01-19T12:26:59;97020;;;0.7;88.5
27358;BME280;14831;50.474;7.616;2023-01-19T12:36:59;97020;;;0.7;88.5
27358;BME280;14831;50.474;7.616;2023-01-19T12:42:09;97020;;;0.8;88.0
27358;BME280;14831;50.474;7.616;2023-01-19T12:46:59;97020;;;0.9;87.8
27358;BME280;14831;50.474;7.616;2023-01-19T12:52:30;97020;;;0.9;87.6
27358;BME280;14831;50.474;7.616;2023-01-19T12:56:59;97020;;;0.9;87.0
27358;BME280;14831;50.474;7.616;2023-01-19T13:03:04;97020;;;0.9;86.7
27358;BME280;14831;50.474;7.616;2023-01-19T13:07:07;97020;;;0.8;86.5
27358;BME280;14831;50.474;7.616;2023-01-19T13:12:30;97020;;;0.8;87.2
27358;BME280;14831;50.474;7.616;2023-01-19T13:17:01;97020;;;0.9;86.6
27358;BME280;14831;50.474;7.616;2023-01-19T13:21:58;97020;;;1.0;85.8
27358;BME280;14831;50.474;7.616;2023-01-19T13:26:58;97030;;;1.1;85.4
27358;BME280;14831;50.474;7.616;2023-01-19T13:31:59;97030;;;1.1;84.9
27358;BME280;14831;50.474;7.616;2023-01-19T13:36:58;97020;;;1.2;84.9
27358;BME280;14831;50.474;7.616;2023-01-19T13:42:00;97020;;;1.2;84.9
27358;BME280;14831;50.474;7.616;2023-01-19T13:46:58;97020;;;1.2;84.1
27358;BME280;14831;50.474;7.616;2023-01-19T13:52:08;97030;;;1.3;84.3
27358;BME280;14831;50.474;7.616;2023-01-19T13:56:58;97030;;;1.4;83.0
27358;BME280;14831;50.474;7.616;2023-01-19T14:02:02;97030;;;1.5;82.1
27358;BME280;14831;50.474;7.616;2023-01-19T14:06:59;97050;;;1.4;82.2
27358;BME280;14831;50.474;7.616;2023-01-19T14:12:08;97050;;;1.2;83.4
27358;BME280;14831;50.474;7.616;2023-01-19T14:16:58;97050;;;0.9;83.9
27358;BME280;14831;50.474;7.616;2023-01-19T14:21:59;97070;;;0.9;85.4
27358;BME280;14831;50.474;7.616;2023-01-19T14:27:06;97050;;;1.0;85.4
27358;BME280;14831;50.474;7.616;2023-01-19T14:32:10;97050;;;1.0;85.4
27358;BME280;14831;50.474;7.616;2023-01-19T14:36:59;97060;;;1.0;84.5
27358;BME280;14831;50.474;7.616;2023-01-19T14:41:59;97060;;;0.9;84.7
27358;BME280;14831;50.474;7.616;2023-01-19T14:46:59;97060;;;0.9;83.9
27358;BME280;14831;50.474;7.616;2023-01-19T14:51:58;97070;;;0.8;83.6
27358;BME280;14831;50.474;7.616;2023-01-19T14:56:58;97070;;;0.7;83.6
27358;BME280;14831;50.474;7.616;2023-01-19T15:01:58;97070;;;0.6;84.2
27358;BME280;14831;50.474;7.616;2023-01-19T15:06:58;97070;;;0.5;84.8
27358;BME280;14831;50.474;7.616;2023-01-19T15:11:58;97070;;;0.4;85.3
27358;BME280;14831;50.474;7.616;2023-01-19T15:16:58;97080;;;0.3;86.2
27358;BME280;14831;50.474;7.616;2023-01-19T15:21:58;97080;;;0.2;86.5
27358;BME280;14831;50.474;7.616;2023-01-19T15:26:58;97080;;;0.2;86.4
27358;BME280;14831;50.474;7.616;2023-01-19T15:31:58;97090;;;0.1;86.7
27358;BME280;14831;50.474;7.616;2023-01-19T15:36:58;97100;;;0.0;86.5
27358;BME280;14831;50.474;7.616;2023-01-19T15:41:58;97100;;;-0.0;90.5
27358;BME280;14831;50.474;7.616;2023-01-19T15:46:58;97100;;;-0.0;91.4
27358;BME280;14831;50.474;7.616;2023-01-19T15:51:58;97090;;;0.1;86.7
27358;BME280;14831;50.474;7.616;2023-01-19T15:56:58;97100;;;0.1;87.1
27358;BME280;14831;50.474;7.616;2023-01-19T16:01:58;97100;;;0.1;87.6
27358;BME280;14831;50.474;7.616;2023-01-19T16:06:58;97110;;;0.2;86.7
27358;BME280;14831;50.474;7.616;2023-01-19T16:11:58;97120;;;0.2;86.7
27358;BME280;14831;50.474;7.616;2023-01-19T16:16:58;97120;;;0.3;86.3
27358;BME280;14831;50.474;7.616;2023-01-19T16:21:58;97110;;;0.3;86.7
27358;BME280;14831;50.474;7.616;2023-01-19T16:26:58;97130;;;0.2;86.6
27358;BME280;14831;50.474;7.616;2023-01-19T16:31:58;97130;;;0.2;86.4
27358;BME280;14831;50.474;7.616;2023-01-19T16:36:58;97120;;;0.3;85.2
27358;BME280;14831;50.474;7.616;2023-01-19T16:41:58;97130;;;0.2;85.0
27358;BME280;14831;50.474;7.616;2023-01-19T16:46:58;97130;;;0.1;85.1
27358;BME280;14831;50.474;7.616;2023-01-19T16:51:58;97130;;;0.0;85.1
27358;BME280;14831;50.474;7.616;2023-01-19T16:56:58;97140;;;-0.0;88.8
27358;BME280;14831;50.474;7.616;2023-01-19T17:01:58;97150;;;-0.0;88.9
27358;BME280;14831;50.474;7.616;2023-01-19T17:06:58;97150;;;-0.0;89.2
27358;BME280;14831;50.474;7.616;2023-01-19T17:11:58;97160;;;-0.1;89.3
27358;BME280;14831;50.474;7.616;2023-01-19T17:16:58;97160;;;-0.1;89.7
27358;BME280;14831;50.474;7.616;2023-01-19T17:21:58;97160;;;-0.2;89.7
27358;BME280;14831;50.474;7.616;2023-01-19T17:26:58;97170;;;-0.2;90.2
27358;BME280;14831;50.474;7.616;2023-01-19T17:31:58;97170;;;-0.2;90.4
27358;BME280;14831;50.474;7.616;2023-01-19T17:36:58;97170;;;-0.3;90.5
27358;BME280;14831;50.474;7.616;2023-01-19T17:41:58;97180;;;-0.3;90.8
27358;BME280;14831;50.474;7.616;2023-01-19T17:46:58;97180;;;-0.3;90.9
27358;BME280;14831;50.474;7.616;2023-01-19T17:51:58;97190;;;-0.3;91.0
27358;BME280;14831;50.474;7.616;2023-01-19T17:56:58;97190;;;-0.3;90.9
27358;BME280;14831;50.474;7.616;2023-01-19T18:01:58;97190;;;-0.3;91.1
27358;BME280;14831;50.474;7.616;2023-01-19T18:06:58;97190;;;-0.3;91.4
27358;BME280;14831;50.474;7.616;2023-01-19T18:11:58;97200;;;-0.4;91.7
27358;BME280;14831;50.474;7.616;2023-01-19T18:16:58;97200;;;-0.4;91.4
27358;BME280;14831;50.474;7.616;2023-01-19T18:21:58;97200;;;-0.4;91.4
27358;BME280;14831;50.474;7.616;2023-01-19T18:26:58;97200;;;-0.5;91.8
27358;BME280;14831;50.474;7.616;2023-01-19T18:31:58;97200;;;-0.5;91.8
27358;BME280;14831;50.474;7.616;2023-01-19T18:36:58;97190;;;-0.6;92.0
27358;BME280;14831;50.474;7.616;2023-01-19T18:41:58;97200;;;-0.6;91.8
27358;BME280;14831;50.474;7.616;2023-01-19T18:46:58;97210;;;-0.6;91.8
27358;BME280;14831;50.474;7.616;2023-01-19T18:51:58;97210;;;-0.6;91.8
27358;BME280;14831;50.474;7.616;2023-01-19T18:56:58;97210;;;-0.7;91.8
27358;BME280;14831;50.474;7.616;2023-01-19T19:01:58;97210;;;-0.7;92.0
27358;BME280;14831;50.474;7.616;2023-01-19T19:06:58;97200;;;-0.7;91.8
27358;BME280;14831;50.474;7.616;2023-01-19T19:11:58;97210;;;-0.7;91.9
27358;BME280;14831;50.474;7.616;2023-01-19T19:16:58;97210;;;-0.7;92.0
27358;BME280;14831;50.474;7.616;2023-01-19T19:21:58;97210;;;-0.6;92.2
27358;BME280;14831;50.474;7.616;2023-01-19T19:26:58;97220;;;-0.6;91.7
27358;BME280;14831;50.474;7.616;2023-01-19T19:31:58;97210;;;-0.6;91.6
27358;BME280;14831;50.474;7.616;2023-01-19T19:36:58;97210;;;-0.6;91.7
27358;BME280;14831;50.474;7.616;2023-01-19T19:41:58;97220;;;-0.7;92.1
27358;BME280;14831;50.474;7.616;2023-01-19T19:46:58;97210;;;-0.7;91.8
27358;BME280;14831;50.474;7.616;2023-01-19T19:51:58;97220;;;-0.7;91.9
27358;BME280;14831;50.474;7.616;2023-01-19T19:56:58;97220;;;-0.7;92.0
27358;BME280;14831;50.474;7.616;2023-01-19T20:01:58;97220;;;-0.8;91.9
27358;BME280;14831;50.474;7.616;2023-01-19T20:06:58;97220;;;-0.9;91.9
27358;BME280;14831;50.474;7.616;2023-01-19T20:11:58;97230;;;-0.9;91.7
27358;BME280;14831;50.474;7.616;2023-01-19T20:16:58;97240;;;-1.0;92.1
27358;BME280;14831;50.474;7.616;2023-01-19T20:21:58;97250;;;-1.1;92.4
27358;BME280;14831;50.474;7.616;2023-01-19T20:26:58;97250;;;-1.2;92.2
27358;BME280;14831;50.474;7.616;2023-01-19T20:31:58;97250;;;-1.2;92.4
27358;BME280;14831;50.474;7.616;2023-01-19T20:36:58;97250;;;-1.3;92.5
27358;BME280;14831;50.474;7.616;2023-01-19T20:41:58;97260;;;-1.4;92.9
27358;BME280;14831;50.474;7.616;2023-01-19T20:46:58;97270;;;-1.6;93.4
27358;BME280;14831;50.474;7.616;2023-01-19T20:51:58;97270;;;-1.6;93.7
27358;BME280;14831;50.474;7.616;2023-01-19T20:56:58;97270;;;-1.6;94.0
27358;BME280;14831;50.474;7.616;2023-01-19T21:01:58;97270;;;-1.7;94.4
27358;BME280;14831;50.474;7.616;2023-01-19T21:06:58;97280;;;-1.8;94.0
27358;BME280;14831;50.474;7.616;2023-01-19T21:11:58;97270;;;-1.8;94.1
27358;BME280;14831;50.474;7.616;2023-01-19T21:16:58;97280;;;-1.9;94.5
27358;BME280;14831;50.474;7.616;2023-01-19T21:21:58;97280;;;-2.0;94.6
27358;BME280;14831;50.474;7.616;2023-01-19T21:26:58;97290;;;-2.0;94.9
27358;BME280;14831;50.474;7.616;2023-01-19T21:31:58;97290;;;-2.0;95.1
27358;BME280;14831;50.474;7.616;2023-01-19T21:36:58;97310;;;-2.0;95.0
27358;BME280;14831;50.474;7.616;2023-01-19T21:41:58;97310;;;-2.2;95.0
27358;BME280;14831;50.474;7.616;2023-01-19T21:46:58;97310;;;-2.2;95.7
27358;BME280;14831;50.474;7.616;2023-01-19T21:51:58;97320;;;-2.2;95.7
27358;BME280;14831;50.474;7.616;2023-01-19T21:56:58;97320;;;-2.2;95.8
27358;BME280;14831;50.474;7.616;2023-01-19T22:01:58;97310;;;-2.3;95.7
27358;BME280;14831;50.474;7.616;2023-01-19T22:06:58;97320;;;-2.4;95.9
27358;BME280;14831;50.474;7.616;2023-01-19T22:11:58;97320;;;-2.4;96.2
27358;BME280;14831;50.474;7.616;2023-01-19T22:16:58;97340;;;-2.5;96.6
27358;BME280;14831;50.474;7.616;2023-01-19T22:21:58;97340;;;-2.5;96.7
27358;BME280;14831;50.474;7.616;2023-01-19T22:26:58;97350;;;-2.5;96.8
27358;BME280;14831;50.474;7.616;2023-01-19T22:31:58;97350;;;-2.3;97.1
27358;BME280;14831;50.474;7.616;2023-01-19T22:36:58;97360;;;-2.2;97.1
27358;BME280;14831;50.474;7.616;2023-01-19T22:41:58;97360;;;-2.0;97.2
27358;BME280;14831;50.474;7.616;2023-01-19T22:46:58;97360;;;-2.0;97.2
27358;BME280;14831;50.474;7.616;2023-01-19T22:51:58;97370;;;-1.9;97.0
27358;BME280;14831;50.474;7.616;2023-01-19T22:56:58;97370;;;-1.9;97.2
27358;BME280;14831;50.474;7.616;2023-01-19T23:01:58;97360;;;-2.0;97.0
27358;BME280;14831;50.474;7.616;2023-01-19T23:06:58;97360;;;-2.0;97.2
27358;BME280;14831;50.474;7.616;2023-01-19T23:11:58;97370;;;-2.1;97.0
27358;BME280;14831;50.474;7.616;2023-01-19T23:16:58;97370;;;-2.0;97.3
27358;BME280;14831;50.474;7.616;2023-01-19T23:21:58;97370;;;-2.0;97.2
27358;BME280;14831;50.474;7.616;2023-01-19T23:26:58;97380;;;-2.1;97.3
27358;BME280;14831;50.474;7.616;2023-01-19T23:31:58;97380;;;-2.3;96.7
27358;BME280;14831;50.474;7.616;2023-01-19T23:36:58;97390;;;-2.4;97.0
27358;BME280;14831;50.474;7.616;2023-01-19T23:41:58;97390;;;-2.5;96.9
27358;BME280;14831;50.474;7.616;2023-01-19T23:46:58;97380;;;-2.7;96.8
27358;BME280;14831;50.474;7.616;2023-01-19T23:51:58;97390;;;-2.8;97.1
27358;BME280;14831;50.474;7.616;2023-01-19T23:56:58;97390;;;-3.0;96.8
